.
WxDataArchive / Data Records for 2008-08-15
2008-08-14 August 2008 2008-08-16

Data Records for Friday, 15 August 2008

Time	Temp	Chill	HIndex	Humid	Dewpt	 Wind 	HiWind	WindDir	Rain 	Barom 
-----	----	-----	------	-----	-----	------	------	-------	-----	----- 
00:00	62.6	62.6	62.6	86	58.3	0	4	45	0.00	29.958 
00:05	62.4	62.4	62.4	87	58.5	1	4	68	0.00	29.951 
00:10	62.1	62.1	62.1	88	58.5	1	4	68	0.00	29.950 
00:15	61.8	61.8	61.8	88	58.2	0	2	68	0.00	29.947 
00:20	61.6	61.6	61.6	88	58.0	0	1	68	0.00	29.946 
00:25	61.5	61.5	61.5	89	58.2	0	2	68	0.00	29.945 
00:30	61.3	61.3	61.3	88	57.7	0	1	68	0.00	29.947 
00:35	61.3	61.3	61.3	88	57.7	0	1	68	0.00	29.949 
00:40	61.3	61.3	61.3	88	57.7	0	0	---	0.00	29.945 
00:45	61.2	61.2	61.2	88	57.6	0	1	68	0.00	29.945 
00:50	61.0	61.0	61.0	88	57.4	0	1	68	0.00	29.944 
00:55	60.9	60.9	60.9	88	57.3	0	0	---	0.00	29.944 
01:00	60.7	60.7	60.7	88	57.1	0	1	68	0.00	29.943 
01:05	60.5	60.5	60.5	88	56.9	0	0	---	0.00	29.940 
01:10	60.4	60.4	60.4	89	57.1	0	0	---	0.00	29.941 
01:15	60.1	60.1	60.1	89	56.8	0	0	---	0.00	29.941 
01:20	59.9	59.9	59.9	89	56.6	0	0	---	0.00	29.941 
01:25	59.8	59.8	59.8	89	56.5	0	0	---	0.00	29.941 
01:30	59.5	59.5	59.5	90	56.6	0	0	---	0.00	29.941 
01:35	59.3	59.3	59.3	90	56.4	0	0	---	0.00	29.941 
01:40	59.0	59.0	59.0	90	56.1	0	0	---	0.00	29.942 
01:45	58.7	58.7	58.7	91	56.1	0	0	---	0.00	29.943 
01:50	58.6	58.6	58.6	91	56.0	0	0	---	0.00	29.944 
01:55	58.4	58.4	58.4	91	55.8	0	0	---	0.00	29.946 
02:00	58.4	58.4	58.4	92	56.1	0	0	---	0.00	29.946 
02:05	58.3	58.3	58.3	92	56.0	0	0	---	0.00	29.943 
02:10	58.3	58.3	58.3	92	56.0	0	0	---	0.00	29.945 
02:15	58.3	58.3	58.3	92	56.0	0	0	---	0.00	29.945 
02:20	58.1	58.1	58.1	93	56.1	0	0	---	0.00	29.945 
02:25	58.0	58.0	58.0	93	56.0	0	0	---	0.00	29.948 
02:30	58.0	58.0	58.0	93	56.0	0	0	---	0.00	29.951 
02:35	57.8	57.8	57.8	93	55.8	0	0	---	0.00	29.950 
02:40	57.8	57.8	57.8	93	55.8	0	0	---	0.00	29.951 
02:45	57.8	57.8	57.8	94	56.1	0	0	---	0.00	29.956 
02:50	58.0	58.0	58.0	94	56.3	0	0	---	0.00	29.958 
02:55	58.1	58.1	58.1	94	56.4	0	0	---	0.00	29.959 
03:00	58.3	58.3	58.3	94	56.6	0	0	---	0.00	29.959 
03:05	58.3	58.3	58.3	94	56.6	0	0	---	0.00	29.958 
03:10	58.3	58.3	58.3	95	56.9	0	0	---	0.00	29.958 
03:15	58.3	58.3	58.3	95	56.9	0	0	---	0.00	29.959 
03:20	58.3	58.3	58.3	95	56.9	0	1	68	0.00	29.958 
03:25	58.1	58.1	58.1	95	56.7	0	0	---	0.00	29.958 
03:30	58.0	58.0	58.0	95	56.6	0	0	---	0.00	29.959 
03:35	58.0	58.0	58.0	95	56.6	0	0	---	0.00	29.960 
03:40	57.8	57.8	57.8	95	56.4	0	0	---	0.00	29.961 
03:45	57.8	57.8	57.8	95	56.4	0	0	---	0.00	29.960 
03:50	57.6	57.6	57.6	95	56.2	0	0	---	0.00	29.963 
03:55	57.5	57.5	57.5	95	56.1	0	0	---	0.00	29.966 
04:00	57.5	57.5	57.5	95	56.1	0	0	---	0.00	29.968 
04:05	57.3	57.3	57.3	95	55.9	0	0	---	0.00	29.981 
04:10	57.3	57.3	57.3	95	55.9	0	1	68	0.00	29.982 
04:15	57.2	57.2	57.2	95	55.8	0	0	---	0.00	29.983 
04:20	57.0	57.0	57.0	95	55.6	0	0	---	0.00	29.983 
04:25	57.0	57.0	57.0	95	55.6	0	0	---	0.00	29.984 
04:30	57.0	57.0	57.0	95	55.6	0	0	---	0.00	29.986 
04:35	56.9	56.9	56.9	95	55.5	0	0	---	0.00	29.988 
04:40	56.9	56.9	56.9	95	55.5	0	0	---	0.00	29.991 
04:45	56.7	56.7	56.7	95	55.3	0	1	68	0.00	29.993 
04:50	56.6	56.6	56.6	95	55.2	0	0	---	0.00	29.993 
04:55	56.5	56.5	56.5	95	55.1	0	0	---	0.00	29.992 
05:00	56.5	56.5	56.5	95	55.1	0	0	---	0.00	29.992 
05:05	56.3	56.3	56.3	95	54.9	0	0	---	0.00	29.995 
05:10	56.2	56.2	56.2	95	54.8	0	0	---	0.00	29.997 
05:15	56.2	56.2	56.2	95	54.8	0	0	---	0.00	29.998 
05:20	56.2	56.2	56.2	95	54.8	0	0	---	0.00	29.998 
05:25	56.0	56.0	56.0	95	54.6	0	1	68	0.00	30.000 
05:30	56.0	56.0	56.0	95	54.6	0	1	68	0.00	30.000 
05:35	56.0	56.0	56.0	95	54.6	0	0	---	0.00	30.000 
05:40	56.0	56.0	56.0	95	54.6	0	2	68	0.00	30.000 
05:45	56.0	56.0	56.0	95	54.6	0	1	68	0.00	29.999 
05:50	56.2	56.2	56.2	95	54.8	0	1	68	0.00	29.999 
05:55	56.2	56.2	56.2	95	54.8	0	3	90	0.00	29.999 
06:00	56.2	56.2	56.2	95	54.8	0	1	90	0.00	30.000 
06:05	56.2	56.2	56.2	95	54.8	0	1	90	0.00	30.001 
06:10	56.3	56.3	56.3	95	54.9	0	1	90	0.00	30.003 
06:15	56.3	56.3	56.3	95	54.9	0	1	90	0.00	30.009 
06:20	56.5	56.5	56.5	95	55.1	0	3	90	0.00	30.013 
06:25	56.7	56.7	56.7	94	55.0	0	1	90	0.00	30.015 
06:30	57.0	57.0	57.0	94	55.3	0	2	90	0.00	30.017 
06:35	57.3	57.3	57.3	94	55.6	0	2	90	0.00	30.018 
06:40	57.8	57.8	57.8	93	55.8	0	2	90	0.00	30.017 
06:45	58.3	58.3	58.3	92	56.0	0	2	90	0.00	30.018 
06:50	58.7	58.7	58.7	90	55.8	0	2	90	0.00	30.020 
06:55	59.2	59.2	59.2	88	55.6	0	2	90	0.00	30.024 
07:00	59.5	59.5	59.5	86	55.3	1	4	90	0.00	30.024 
07:05	59.9	59.9	59.9	85	55.4	0	3	135	0.00	30.026 
07:10	60.4	60.4	60.4	84	55.5	1	3	112	0.00	30.028 
07:15	60.9	60.9	60.9	83	55.7	1	3	135	0.00	30.026 
07:20	61.3	61.3	61.3	81	55.4	1	3	135	0.00	30.027 
07:25	61.8	61.8	61.8	79	55.2	1	5	112	0.00	30.029 
07:30	62.4	62.4	62.4	79	55.8	0	2	135	0.00	30.031 
07:35	63.1	63.1	63.1	78	56.1	0	1	135	0.00	30.032 
07:40	63.5	63.5	63.5	76	55.8	0	2	135	0.00	30.036 
07:45	64.0	64.0	64.0	74	55.5	1	3	90	0.00	30.037 
07:50	64.5	64.5	64.5	73	55.6	1	3	90	0.00	30.036 
07:55	65.0	65.0	65.0	74	56.5	0	2	90	0.00	30.037 
08:00	65.3	65.3	65.3	74	56.8	0	3	135	0.00	30.038 
08:05	65.8	65.8	65.8	71	56.1	1	4	135	0.00	30.039 
08:10	66.1	66.1	66.1	70	56.0	1	3	135	0.00	30.040 
08:15	66.3	66.3	66.3	70	56.2	1	4	112	0.00	30.041 
08:20	66.3	66.3	66.3	71	56.6	1	5	90	0.00	30.044 
08:25	66.6	66.6	66.6	71	56.9	1	3	112	0.00	30.044 
08:30	66.9	66.9	66.9	70	56.8	1	2	112	0.00	30.045 
08:35	67.3	67.3	67.3	70	57.2	1	5	112	0.00	30.046 
08:40	67.6	67.6	67.6	68	56.7	1	6	112	0.00	30.044 
08:45	67.6	67.6	67.6	68	56.7	2	4	90	0.00	30.045 
08:50	67.9	67.9	67.9	69	57.3	1	2	90	0.00	30.048 
08:55	68.4	68.4	68.4	69	57.8	1	3	112	0.00	30.051 
09:00	68.6	68.6	68.6	65	56.4	1	3	112	0.00	30.053 
09:05	68.9	68.9	68.9	63	55.8	2	5	90	0.00	30.055 
09:10	69.1	69.1	69.1	61	55.1	2	4	90	0.00	30.055 
09:15	69.1	69.1	69.1	61	55.1	2	4	112	0.00	30.055 
09:20	69.4	69.4	69.4	59	54.4	1	5	112	0.00	30.056 
09:25	69.6	69.6	69.6	59	54.6	2	4	90	0.00	30.056 
09:30	69.8	69.8	69.8	59	54.8	2	5	90	0.00	30.057 
09:35	69.8	69.8	69.8	59	54.8	2	10	112	0.00	30.057 
09:40	70.1	70.1	70.1	57	54.1	2	6	90	0.00	30.057 
09:45	70.6	70.6	70.6	60	56.0	1	4	112	0.00	30.057 
09:50	70.8	70.8	70.8	57	54.8	3	5	112	0.00	30.057 
09:55	70.9	70.9	70.9	58	55.4	1	3	112	0.00	30.056 
10:00	71.5	71.5	71.5	54	54.0	1	5	90	0.00	30.057 
10:05	71.8	71.8	71.8	54	54.2	2	4	112	0.00	30.058 
10:10	72.1	72.1	72.1	54	54.5	1	7	90	0.00	30.057 
10:15	72.7	72.7	72.7	53	54.6	1	4	135	0.00	30.055 
10:20	73.0	73.0	73.0	53	54.8	1	4	112	0.00	30.059 
10:25	73.5	73.5	73.5	51	54.2	1	3	112	0.00	30.061 
10:30	73.7	73.7	73.7	50	53.9	1	3	112	0.00	30.061 
10:35	74.0	74.0	74.0	51	54.7	1	3	112	0.00	30.063 
10:40	74.6	74.6	74.6	49	54.2	1	4	135	0.00	30.064 
10:45	74.7	74.7	74.7	48	53.7	1	4	135	0.00	30.064 
10:50	74.9	74.9	74.9	50	55.0	1	4	90	0.00	30.064 
10:55	75.1	75.1	77.7	46	52.9	1	6	112	0.00	30.062 
11:00	75.3	75.3	77.7	48	54.2	0	3	68	0.00	30.062 
11:05	75.6	75.6	77.8	43	51.5	1	3	112	0.00	30.062 
11:10	76.0	76.0	78.0	44	52.5	1	3	112	0.00	30.062 
11:15	76.0	76.0	77.9	41	50.6	1	5	112	0.00	30.065 
11:20	76.1	76.1	78.1	47	54.4	1	5	90	0.00	30.063 
11:25	76.5	76.5	78.2	44	52.9	1	4	112	0.00	30.064 
11:30	76.5	76.5	78.1	42	51.7	1	2	270	0.00	30.062 
11:35	76.5	76.5	78.1	43	52.3	1	5	270	0.00	30.063 
11:40	76.7	76.7	78.2	42	51.9	2	4	135	0.00	30.063 
11:45	76.8	76.8	78.1	40	50.6	1	3	112	0.00	30.060 
11:50	77.0	77.0	78.2	40	50.8	1	5	112	0.00	30.058 
11:55	77.2	77.2	78.4	41	51.7	1	4	135	0.00	30.057 
12:00	77.4	77.4	78.4	39	50.5	2	6	90	0.00	30.053 
12:05	77.2	77.2	78.2	38	49.6	2	6	90	0.00	30.054 
12:10	77.4	77.4	78.3	38	49.8	1	3	158	0.00	30.054 
12:15	77.6	77.6	78.5	40	51.3	1	4	90	0.00	30.053 
12:20	77.6	77.6	78.5	40	51.3	1	6	135	0.00	30.054 
12:25	77.6	77.6	78.4	38	50.0	1	5	202	0.00	30.055 
12:30	77.6	77.6	78.4	38	50.0	2	4	112	0.00	30.054 
12:35	77.9	77.9	78.7	41	52.3	0	2	112	0.00	30.053 
12:40	77.9	77.9	78.6	39	50.9	1	4	338	0.00	30.054 
12:45	77.9	77.9	78.6	38	50.2	1	2	315	0.00	30.055 
12:50	77.7	77.7	78.6	40	51.4	1	3	90	0.00	30.057 
12:55	77.4	77.4	78.5	42	52.5	0	2	90	0.00	30.058 
13:00	77.6	77.6	78.4	38	50.0	1	4	90	0.00	30.056 
13:05	78.3	78.3	78.8	39	51.3	1	7	112	0.00	30.055 
13:10	78.5	78.5	79.0	40	52.1	2	5	112	0.00	30.054 
13:15	78.6	78.6	78.8	36	49.4	1	2	90	0.00	30.055 
13:20	78.8	78.8	79.0	37	50.3	0	2	22	0.00	30.054 
13:25	79.0	79.0	79.0	36	49.7	0	3	22	0.00	30.055 
13:30	79.4	79.4	79.3	37	50.8	0	3	45	0.00	30.054 
13:35	79.8	79.8	79.5	36	50.4	1	2	22	0.00	30.052 
13:40	80.1	80.1	79.6	35	50.0	1	3	45	0.00	30.052 
13:45	80.3	80.3	79.7	35	50.1	1	3	112	0.00	30.051 
13:50	80.3	80.3	79.4	31	46.9	1	3	315	0.00	30.050 
13:55	80.3	80.3	79.6	33	48.5	0	2	315	0.00	30.048 
14:00	80.1	80.1	79.4	32	47.6	1	3	292	0.00	30.048 
14:05	80.1	80.1	79.4	32	47.6	1	4	112	0.00	30.047 
14:10	80.3	80.3	79.6	33	48.5	1	3	68	0.00	30.044 
14:15	80.5	80.5	79.8	34	49.5	0	2	68	0.00	30.041 
14:20	80.3	80.3	79.6	33	48.5	1	3	22	0.00	30.040 
14:25	80.1	80.1	79.7	36	50.7	0	2	45	0.00	30.039 
14:30	79.9	79.9	79.7	38	52.0	1	5	112	0.00	30.039 
14:35	79.6	79.6	79.2	34	48.7	1	4	112	0.00	30.040 
14:40	79.2	79.2	78.9	32	46.8	1	3	68	0.00	30.043 
14:45	79.2	79.2	79.1	35	49.2	0	5	112	0.00	30.041 
14:50	78.6	78.6	78.7	35	48.6	1	3	158	0.00	30.042 
14:55	77.9	77.9	78.5	37	49.5	0	1	158	0.00	30.039 
15:00	77.9	77.9	78.4	35	48.0	0	2	158	0.00	30.038 
15:05	78.6	78.6	78.8	36	49.4	1	2	225	0.00	30.038 
15:10	78.6	78.6	78.5	32	46.3	1	3	315	0.00	30.038 
15:15	78.6	78.6	78.5	32	46.3	1	3	315	0.00	30.037 
15:20	79.0	79.0	79.0	36	49.7	1	4	315	0.00	30.036 
15:25	78.8	78.8	78.8	35	48.8	1	2	292	0.00	30.036 
15:30	78.5	78.5	78.6	34	47.8	0	3	292	0.00	30.036 
15:35	78.8	78.8	79.1	39	51.7	0	2	292	0.00	30.036 
15:40	79.4	79.4	79.2	35	49.3	0	2	292	0.00	30.034 
15:45	79.2	79.2	79.1	36	49.9	1	3	292	0.00	30.036 
15:50	78.3	78.3	78.6	36	49.1	0	2	292	0.00	30.037 
15:55	77.4	77.4	78.3	37	49.1	0	1	292	0.00	30.036 
16:00	77.0	77.0	78.2	39	50.1	0	1	292	0.00	30.038 
16:05	76.8	76.8	78.0	38	49.2	0	2	292	0.00	30.038 
16:10	76.5	76.5	78.1	41	51.0	0	1	292	0.00	30.036 
16:15	76.7	76.7	78.1	39	49.9	0	2	292	0.00	30.036 
16:20	77.2	77.2	78.3	39	50.3	0	2	292	0.00	30.035 
16:25	77.7	77.7	78.5	39	50.7	1	2	292	0.00	30.035 
16:30	77.6	77.6	78.5	39	50.7	0	2	292	0.00	30.033 
16:35	77.6	77.6	78.4	37	49.2	1	2	292	0.00	30.031 
16:40	77.7	77.7	78.5	38	50.0	1	4	270	0.00	30.027 
16:45	77.9	77.9	78.6	39	50.9	1	2	270	0.00	30.026 
16:50	77.9	77.9	78.5	37	49.5	1	4	292	0.00	30.027 
16:55	77.9	77.9	78.6	38	50.2	0	2	315	0.00	30.027 
17:00	77.9	77.9	78.4	36	48.8	0	2	338	0.00	30.026 
17:05	77.9	77.9	78.4	36	48.8	1	3	315	0.00	30.025 
17:10	77.7	77.7	78.5	38	50.0	0	3	315	0.00	30.025 
17:15	77.9	77.9	78.6	38	50.2	0	2	292	0.00	30.026 
17:20	77.9	77.9	78.7	40	51.6	0	1	292	0.00	30.026 
17:25	77.9	77.9	78.6	38	50.2	1	3	292	0.00	30.027 
17:30	77.7	77.7	78.5	39	50.7	0	2	292	0.00	30.026 
17:35	77.6	77.6	78.5	40	51.3	0	1	292	0.00	30.028 
17:40	77.4	77.4	78.5	42	52.5	0	2	292	0.00	30.032 
17:45	76.8	76.8	78.3	43	52.6	0	1	292	0.00	30.035 
17:50	76.3	76.3	78.1	44	52.8	0	1	292	0.00	30.036 
17:55	76.0	76.0	78.0	44	52.5	0	1	292	0.00	30.036 
18:00	75.8	75.8	77.9	44	52.3	0	1	292	0.00	30.037 
18:05	75.8	75.8	77.8	43	51.7	0	1	292	0.00	30.033 
18:10	75.8	75.8	77.8	43	51.7	0	1	292	0.00	30.033 
18:15	76.0	76.0	78.0	44	52.5	0	1	292	0.00	30.033 
18:20	76.0	76.0	77.9	43	51.9	0	1	315	0.00	30.033 
18:25	76.1	76.1	77.9	42	51.3	0	1	315	0.00	30.031 
18:30	76.0	76.0	77.9	42	51.2	0	1	315	0.00	30.032 
18:35	75.8	75.8	77.8	43	51.7	0	3	248	0.00	30.032 
18:40	75.6	75.6	77.8	44	52.1	0	1	0	0.00	30.034 
18:45	75.3	75.3	77.7	45	52.5	0	1	0	0.00	30.036 
18:50	74.9	74.9	74.9	45	52.1	0	1	0	0.00	30.036 
18:55	74.6	74.6	74.6	47	53.0	0	1	0	0.00	30.037 
19:00	74.2	74.2	74.2	47	52.7	0	1	0	0.00	30.038 
19:05	73.9	73.9	73.9	48	53.0	0	1	0	0.00	30.036 
19:10	73.5	73.5	73.5	49	53.2	0	0	---	0.00	30.037 
19:15	73.2	73.2	73.2	50	53.4	0	0	---	0.00	30.039 
19:20	72.8	72.8	72.8	50	53.1	0	0	---	0.00	30.043 
19:25	72.5	72.5	72.5	50	52.8	0	0	---	0.00	30.044 
19:30	72.1	72.1	72.1	51	53.0	0	0	---	0.00	30.046 
19:35	71.8	71.8	71.8	52	53.2	0	0	---	0.00	30.048 
19:40	71.5	71.5	71.5	52	52.9	0	1	0	0.00	30.048 
19:45	71.1	71.1	71.1	54	53.6	0	0	---	0.00	30.050 
19:50	70.8	70.8	70.8	54	53.3	0	0	---	0.00	30.051 
19:55	70.3	70.3	70.3	55	53.4	0	0	---	0.00	30.054 
20:00	69.9	69.9	69.9	56	53.5	0	0	---	0.00	30.054 
20:05	69.8	69.8	69.8	56	53.4	0	0	---	0.00	30.051 
20:10	69.4	69.4	69.4	57	53.5	0	0	---	0.00	30.053 
20:15	69.3	69.3	69.3	57	53.4	0	0	---	0.00	30.057 
20:20	68.9	68.9	68.9	58	53.5	0	0	---	0.00	30.056 
20:25	68.6	68.6	68.6	59	53.7	0	0	---	0.00	30.056 
20:30	68.3	68.3	68.3	60	53.9	0	0	---	0.00	30.063 
20:35	67.9	67.9	67.9	60	53.5	0	0	---	0.00	30.065 
20:40	67.6	67.6	67.6	61	53.7	0	0	---	0.00	30.068 
20:45	67.3	67.3	67.3	62	53.8	0	0	---	0.00	30.069 
20:50	66.9	66.9	66.9	62	53.4	0	0	---	0.00	30.070 
20:55	66.4	66.4	66.4	63	53.4	0	0	---	0.00	30.071 
21:00	66.1	66.1	66.1	64	53.6	0	0	---	0.00	30.072 
21:05	65.8	65.8	65.8	65	53.7	0	0	---	0.00	30.071 
21:10	65.5	65.5	65.5	66	53.8	0	0	---	0.00	30.073 
21:15	65.2	65.2	65.2	68	54.4	0	0	---	0.00	30.079 
21:20	65.0	65.0	65.0	68	54.2	0	0	---	0.00	30.078 
21:25	64.7	64.7	64.7	69	54.3	0	0	---	0.00	30.081 
21:30	64.3	64.3	64.3	70	54.3	0	0	---	0.00	30.083 
21:35	64.2	64.2	64.2	71	54.6	0	0	---	0.00	30.083 
21:40	64.0	64.0	64.0	72	54.8	0	0	---	0.00	30.083 
21:45	63.9	63.9	63.9	72	54.7	0	0	---	0.00	30.085 
21:50	64.2	64.2	64.2	71	54.6	0	1	0	0.00	30.086 
21:55	64.5	64.5	64.5	70	54.5	0	0	---	0.00	30.088 
22:00	64.7	64.7	64.7	70	54.7	0	0	---	0.00	30.089 
22:05	64.7	64.7	64.7	70	54.7	0	0	---	0.00	30.085 
22:10	64.7	64.7	64.7	70	54.7	0	0	---	0.00	30.086 
22:15	64.7	64.7	64.7	70	54.7	0	0	---	0.00	30.088 
22:20	64.5	64.5	64.5	71	54.9	0	0	---	0.00	30.089 
22:25	64.5	64.5	64.5	71	54.9	0	0	---	0.00	30.091 
22:30	64.2	64.2	64.2	72	55.0	0	0	---	0.00	30.095 
22:35	64.0	64.0	64.0	73	55.2	0	0	---	0.00	30.095 
22:40	63.9	63.9	63.9	73	55.1	0	0	---	0.00	30.092 
22:45	63.9	63.9	63.9	74	55.4	0	0	---	0.00	30.094 
22:50	64.0	64.0	64.0	73	55.2	0	0	---	0.00	30.095 
22:55	64.2	64.2	64.2	73	55.4	0	0	---	0.00	30.094 
23:00	64.2	64.2	64.2	73	55.4	0	0	---	0.00	30.097 
23:05	64.2	64.2	64.2	74	55.7	0	0	---	0.00	30.095 
23:10	64.2	64.2	64.2	74	55.7	0	0	---	0.00	30.094 
23:15	64.0	64.0	64.0	74	55.5	0	0	---	0.00	30.094 
23:20	64.0	64.0	64.0	75	55.9	0	0	---	0.00	30.093 
23:25	63.9	63.9	63.9	75	55.8	0	0	---	0.00	30.091 
23:30	63.9	63.9	63.9	76	56.2	0	0	---	0.00	30.091 
23:35	63.7	63.7	63.7	76	56.0	0	0	---	0.00	30.090 
23:40	63.5	63.5	63.5	76	55.8	0	0	---	0.00	30.090 
23:45	63.4	63.4	63.4	76	55.7	0	0	---	0.00	30.090 
23:50	63.2	63.2	63.2	77	55.9	0	0	---	0.00	30.089 
23:55	63.2	63.2	63.2	77	55.9	0	0	---	0.00	30.089 

CoCoRaHS
IN-AL-39
A2 Web Hosting
Creative Commons License
GoDaddy
Look for:

loaded 2017-10-19 14:41:16 • last modified 2010-11-18 10:43:29
Privacy PolicyDisclaimer
• wx.awcolley.com is powered by PmWiki v.2002016 •
• all content (unless otherwise noted) © 2017 A W Colley